Hlavní strana
METAR-TAF:

METAR-TAF

Letiště :

Rabat, Maroko

zeměpisná šířka: 34-03N, zeměpisná délka: 006-46W, výška: 84 m

Aktuální stav počasí

Zpráva byla vytvořena před 39 minutami, v 05:00 UTC
Jihojihozápadní vítr 5 kt, proměnlivý mezi jižním a západojihozápadním
Teplota 21°C
Vlhkost vzduchu 88%
Tlak 1016 hPa
Viditelnost: 4000 m
Skoro jasno ve výšce 300 ft
kouřmo

METAR: GMME 240500Z 21005KT 180V240 4000 BR FEW003 21/19 Q1016

Čas: 06:39 (05:39 UTC)

Předpověď počasí

Zpráva byla vytvořena před 6 hodinami a 39 minutami, v 23:00 UTC
Předpověď platná od 24 v 00 UTC do 25 v 06 UTC
Jihojihozápadní vítr 4 kt
Viditelnost: 8000 m
Pravděpodobnost 40% :
Dočasný
od 24 v 01 UTC do 24 v 07 UTC
Viditelnost: 3000 m
Oblačno až skoro zataženo ve výšce 1300 ft
kouřmo
Pravděpodobnost 40% :
Dočasný
od 25 v 03 UTC do 25 v 06 UTC
Viditelnost: 3000 m
Oblačno až skoro zataženo ve výšce 1500 ft
kouřmo

TAF: GMME 232300Z 2400/2506 21004KT 8000 NSC PROB40 TEMPO 2401/2407 3000 BR BKN013 PROB40 TEMPO 2503/2506 3000 BR BKN015

Stav a předpovědi počasí z více než 4 000 letišť (zprávy METAR a TAF).

Červené a žluté tečky na mapě představují dostupné meteorologické stanice.

Když kurzor umístíte na tečku, zobrazí se název stanice.

Pak kliknutím zobrazíte stav a předpověď počasí.

Chcete-li změnit mapu, kliknutím na zelené tlačítko se znaménkem +mapu přiblížíte, kliknutím na zelené tlačítko se znaménkem – mapu oddálíte a kliknutím na zelené šipky přejdete na sousední mapy.


METAR-TAF: